createdAt,value
2023-05-23T00:01:43.236Z,17.13
2023-05-23T00:04:10.838Z,17.47
2023-05-23T00:06:38.821Z,21.43
2023-05-23T00:09:06.120Z,20.73
2023-05-23T00:11:33.125Z,14.40
2023-05-23T00:14:01.303Z,12.07
2023-05-23T00:16:28.500Z,12.50
2023-05-23T00:18:57.607Z,16.07
2023-05-23T00:21:24.686Z,11.57
2023-05-23T00:23:51.716Z,11.50
2023-05-23T00:26:18.667Z,13.30
2023-05-23T00:28:46.788Z,12.70
2023-05-23T00:31:13.739Z,17.43
2023-05-23T00:33:40.820Z,13.70
2023-05-23T00:36:07.794Z,12.80
2023-05-23T00:38:34.709Z,13.27
2023-05-23T00:41:02.559Z,21.83
2023-05-23T00:43:29.566Z,17.03
2023-05-23T00:45:56.575Z,15.10
2023-05-23T00:48:25.683Z,13.87
2023-05-23T00:50:53.972Z,14.43
2023-05-23T00:53:21.726Z,12.80
2023-05-23T00:55:48.910Z,10.17
2023-05-23T00:58:17.694Z,15.60
2023-05-23T01:00:50.368Z,11.30
2023-05-23T01:03:18.920Z,13.93
2023-05-23T01:05:45.978Z,14.50
2023-05-23T01:08:13.178Z,18.03
2023-05-23T01:10:40.229Z,12.47
2023-05-23T01:13:24.419Z,11.20
2023-05-23T01:16:19.747Z,16.83
2023-05-23T01:19:04.780Z,20.33
2023-05-23T01:21:32.520Z,13.40
2023-05-23T01:24:19.488Z,12.27
2023-05-23T01:27:06.170Z,11.70
2023-05-23T01:29:38.992Z,15.47
2023-05-23T01:32:11.605Z,11.90
2023-05-23T01:34:40.351Z,14.37
2023-05-23T01:37:11.831Z,15.83
2023-05-23T01:39:39.102Z,12.77
2023-05-23T01:42:06.936Z,15.10
2023-05-23T01:44:36.374Z,10.90
2023-05-23T01:47:04.551Z,14.40
2023-05-23T01:49:32.549Z,14.50
2023-05-23T01:52:01.861Z,14.50
2023-05-23T01:54:30.571Z,11.80
2023-05-23T01:56:58.280Z,9.83
2023-05-23T01:59:25.510Z,14.03
2023-05-23T02:01:53.670Z,12.67
2023-05-23T02:04:21.722Z,16.80
2023-05-23T02:06:48.650Z,13.90
2023-05-23T02:09:15.713Z,14.47
2023-05-23T02:11:42.668Z,9.83
2023-05-23T02:14:11.170Z,15.33
2023-05-23T02:16:38.221Z,16.87
2023-05-23T02:19:05.253Z,14.93
2023-05-23T02:21:34.834Z,13.20
2023-05-23T02:24:03.710Z,22.17
2023-05-23T02:26:30.699Z,24.33
2023-05-23T02:28:57.622Z,18.47
2023-05-23T02:31:25.180Z,13.70
2023-05-23T02:33:52.137Z,17.87
2023-05-23T02:36:19.181Z,11.60
2023-05-23T02:38:46.145Z,12.50
2023-05-23T02:41:13.064Z,15.77
2023-05-23T02:43:40.006Z,12.43
2023-05-23T02:46:07.152Z,12.40
2023-05-23T02:48:34.114Z,15.17
2023-05-23T02:51:01.210Z,11.43
2023-05-23T02:53:28.262Z,15.77
2023-05-23T02:55:55.642Z,11.83
2023-05-23T02:58:22.804Z,12.63
2023-05-23T03:00:49.758Z,15.20
2023-05-23T03:03:17.697Z,12.70
2023-05-23T03:05:44.864Z,11.70
2023-05-23T03:08:12.190Z,14.30
2023-05-23T03:10:40.299Z,12.23
2023-05-23T03:13:07.397Z,14.10
2023-05-23T03:15:35.557Z,11.60
2023-05-23T03:18:02.851Z,14.40
2023-05-23T03:20:32.133Z,11.90
2023-05-23T03:22:59.161Z,17.13
2023-05-23T03:25:26.251Z,12.33
2023-05-23T03:27:54.788Z,15.07
2023-05-23T03:30:22.169Z,16.20
2023-05-23T03:32:50.046Z,15.77
2023-05-23T03:35:17.324Z,13.47
2023-05-23T03:37:44.420Z,14.63
2023-05-23T03:40:11.496Z,14.30
2023-05-23T03:42:40.046Z,14.30
2023-05-23T03:45:09.127Z,15.60
2023-05-23T03:47:36.545Z,14.43
2023-05-23T03:50:03.832Z,16.30
2023-05-23T03:52:31.425Z,15.53
2023-05-23T03:54:58.521Z,12.13
2023-05-23T03:57:25.593Z,13.97
2023-05-23T03:59:53.036Z,11.00
2023-05-23T04:02:22.551Z,15.30
2023-05-23T04:04:49.638Z,18.90
2023-05-23T04:07:16.789Z,14.07
2023-05-23T04:09:44.920Z,18.40
2023-05-23T04:12:13.504Z,12.70
2023-05-23T04:14:40.570Z,13.87
2023-05-23T04:17:09.212Z,15.97
2023-05-23T04:19:36.716Z,15.83
2023-05-23T04:22:03.777Z,12.67
2023-05-23T04:24:31.029Z,23.73
2023-05-23T04:26:59.350Z,16.87
2023-05-23T04:29:26.568Z,15.00
2023-05-23T04:31:54.984Z,26.20
2023-05-23T04:34:22.476Z,16.90
2023-05-23T04:36:49.788Z,14.87
2023-05-23T04:39:17.118Z,17.43
2023-05-23T04:42:00.560Z,18.27
2023-05-23T04:44:45.769Z,13.27
2023-05-23T04:47:19.067Z,16.50
2023-05-23T04:49:57.596Z,18.50
2023-05-23T04:52:25.480Z,17.03
2023-05-23T04:54:54.068Z,21.03
2023-05-23T04:57:22.071Z,15.67
2023-05-23T04:59:49.174Z,13.70
2023-05-23T05:02:16.175Z,13.17
2023-05-23T05:04:43.083Z,20.00
2023-05-23T05:07:10.842Z,14.67
2023-05-23T05:09:37.771Z,16.53
2023-05-23T05:12:04.985Z,16.53
2023-05-23T05:14:31.909Z,13.10
2023-05-23T05:17:00.052Z,15.77
2023-05-23T05:19:34.415Z,21.73
2023-05-23T05:22:01.496Z,23.00
2023-05-23T05:24:29.850Z,16.03
2023-05-23T05:26:57.554Z,19.83
2023-05-23T05:29:25.295Z,13.37
2023-05-23T05:31:53.407Z,17.97
2023-05-23T05:34:20.873Z,15.17
2023-05-23T05:36:48.312Z,25.47
2023-05-23T05:39:17.721Z,19.60
2023-05-23T05:41:44.777Z,17.10
2023-05-23T05:44:11.811Z,16.90
2023-05-23T05:46:39.077Z,21.30
2023-05-23T05:49:06.036Z,16.30
2023-05-23T05:51:32.984Z,17.60
2023-05-23T05:54:00.152Z,16.23
2023-05-23T05:56:27.886Z,13.13
2023-05-23T05:58:54.855Z,15.50
2023-05-23T06:01:22.469Z,13.83
2023-05-23T06:03:49.651Z,20.57
2023-05-23T06:06:18.069Z,24.40
2023-05-23T06:08:45.204Z,16.40
2023-05-23T06:11:16.273Z,15.77
2023-05-23T06:13:43.203Z,34.60
2023-05-23T06:16:10.538Z,18.50
2023-05-23T06:18:37.556Z,21.93
2023-05-23T06:21:04.568Z,20.13
2023-05-23T06:23:33.185Z,26.13
2023-05-23T06:26:00.130Z,21.97
2023-05-23T06:28:27.333Z,18.13
2023-05-23T06:30:54.251Z,20.47
2023-05-23T06:33:21.188Z,21.23
2023-05-23T06:35:49.229Z,20.57
2023-05-23T06:38:17.805Z,19.97
2023-05-23T06:40:45.087Z,19.80
2023-05-23T06:43:12.531Z,22.60
2023-05-23T06:45:47.742Z,17.10
2023-05-23T06:48:14.857Z,16.87
2023-05-23T06:50:42.496Z,17.77
2023-05-23T06:53:11.237Z,18.03
2023-05-23T06:55:38.386Z,18.87
2023-05-23T06:58:07.736Z,20.43
2023-05-23T07:00:36.861Z,12.53
2023-05-23T07:03:24.106Z,19.53
2023-05-23T07:05:51.911Z,18.10
2023-05-23T07:08:20.053Z,13.70
2023-05-23T07:10:59.566Z,15.57
2023-05-23T07:13:44.785Z,23.13
2023-05-23T07:16:19.699Z,33.63
2023-05-23T07:19:03.256Z,24.20
2023-05-23T07:21:31.713Z,19.00
2023-05-23T07:23:58.634Z,19.33
2023-05-23T07:26:27.362Z,17.93
2023-05-23T07:28:56.134Z,15.03
2023-05-23T07:31:23.414Z,20.57
2023-05-23T07:33:56.815Z,16.63
2023-05-23T07:36:34.132Z,20.03
2023-05-23T07:39:02.092Z,19.30
2023-05-23T07:41:29.052Z,28.00
2023-05-23T07:43:56.073Z,22.33
2023-05-23T07:46:23.136Z,19.67
2023-05-23T07:48:50.128Z,19.93
2023-05-23T07:51:19.314Z,19.93
2023-05-23T07:53:46.257Z,15.33
2023-05-23T07:56:13.967Z,14.50
2023-05-23T07:58:42.683Z,14.30
2023-05-23T08:01:09.712Z,14.40
2023-05-23T08:03:59.486Z,14.77
2023-05-23T08:06:38.641Z,17.40
2023-05-23T08:09:10.225Z,15.10
2023-05-23T08:11:42.418Z,12.40
2023-05-23T08:14:09.464Z,13.70
2023-05-23T08:16:39.209Z,17.00
2023-05-23T08:19:14.362Z,14.23
2023-05-23T08:21:42.473Z,12.30
2023-05-23T08:24:09.445Z,11.83
2023-05-23T08:26:39.445Z,10.80
2023-05-23T08:29:10.620Z,17.57
2023-05-23T08:31:37.930Z,13.83
2023-05-23T08:34:06.864Z,17.30
2023-05-23T08:36:36.721Z,14.73
2023-05-23T08:39:05.405Z,15.70
2023-05-23T08:41:36.869Z,16.37
2023-05-23T08:44:08.989Z,13.90
2023-05-23T08:46:46.728Z,15.83
2023-05-23T08:49:23.138Z,15.07
2023-05-23T08:51:55.961Z,13.37
2023-05-23T08:54:23.008Z,14.70
2023-05-23T08:56:52.231Z,16.03
2023-05-23T08:59:20.177Z,14.23
2023-05-23T09:01:48.636Z,16.33
2023-05-23T09:04:17.202Z,12.73
2023-05-23T09:06:57.556Z,15.80
2023-05-23T09:09:25.764Z,13.27
2023-05-23T09:11:54.456Z,14.30
2023-05-23T09:14:22.548Z,12.10
2023-05-23T09:16:52.132Z,12.20
2023-05-23T09:19:22.618Z,13.80
2023-05-23T09:21:55.985Z,11.90
2023-05-23T09:24:36.290Z,12.47
2023-05-23T09:27:07.276Z,19.53
2023-05-23T09:29:40.441Z,12.67
2023-05-23T09:32:21.359Z,13.90
2023-05-23T09:35:06.404Z,11.27
2023-05-23T09:37:35.791Z,12.00
2023-05-23T09:40:12.241Z,14.90
2023-05-23T09:42:45.099Z,17.87
2023-05-23T09:45:13.857Z,19.20
2023-05-23T09:47:51.079Z,13.90
2023-05-23T09:50:18.260Z,13.30
2023-05-23T09:52:46.489Z,11.40
2023-05-23T09:55:13.961Z,11.33
2023-05-23T09:57:43.228Z,12.00
2023-05-23T10:00:12.335Z,11.63
2023-05-23T10:03:15.109Z,14.20
2023-05-23T10:05:47.526Z,12.57
2023-05-23T10:08:40.294Z,11.63
2023-05-23T10:11:36.025Z,12.73
2023-05-23T10:14:09.572Z,16.37
2023-05-23T10:17:19.072Z,10.53
2023-05-23T10:19:56.677Z,13.00
2023-05-23T10:22:24.539Z,10.33
2023-05-23T10:24:51.654Z,13.57
2023-05-23T10:27:19.107Z,12.13
2023-05-23T10:29:46.881Z,11.23
2023-05-23T10:32:15.066Z,13.20
2023-05-23T10:35:09.876Z,10.90
2023-05-23T10:38:07.048Z,13.47
2023-05-23T10:41:07.012Z,9.60
2023-05-23T10:44:01.060Z,46.30
2023-05-23T10:46:52.771Z,14.60
2023-05-23T10:49:20.574Z,12.00
2023-05-23T10:51:52.349Z,10.30
2023-05-23T10:54:22.918Z,16.07
2023-05-23T10:57:04.453Z,12.17
2023-05-23T10:59:31.880Z,9.77
2023-05-23T11:02:01.379Z,10.63
2023-05-23T11:04:29.396Z,11.30
2023-05-23T11:06:57.634Z,11.93
2023-05-23T11:09:24.782Z,9.97
2023-05-23T11:11:54.587Z,9.90
2023-05-23T11:14:55.879Z,14.60
2023-05-23T11:17:33.670Z,10.83
2023-05-23T11:20:06.996Z,11.40
2023-05-23T11:22:35.070Z,9.60
2023-05-23T11:25:08.142Z,11.90
2023-05-23T11:27:40.946Z,18.50
2023-05-23T11:30:10.309Z,9.90
2023-05-23T11:32:37.861Z,11.10
2023-05-23T11:35:07.662Z,10.43
2023-05-23T11:37:36.111Z,8.83
2023-05-23T11:40:41.577Z,9.23
2023-05-23T11:43:11.887Z,18.10
2023-05-23T11:45:40.021Z,11.03
2023-05-23T11:48:08.370Z,10.57
2023-05-23T11:50:44.473Z,10.47
2023-05-23T11:53:11.775Z,11.00
2023-05-23T11:55:41.828Z,10.57
2023-05-23T11:58:10.351Z,10.00
2023-05-23T12:00:46.458Z,11.87
2023-05-23T12:03:13.693Z,10.60
2023-05-23T12:05:44.789Z,18.23
2023-05-23T12:08:14.508Z,9.23
2023-05-23T12:10:57.693Z,12.37
2023-05-23T12:13:26.247Z,7.90
2023-05-23T12:16:00.638Z,10.13
2023-05-23T12:18:32.277Z,9.27
2023-05-23T12:21:05.768Z,14.23
2023-05-23T12:23:34.992Z,9.43
2023-05-23T12:26:10.379Z,10.33
2023-05-23T12:28:43.556Z,12.30
2023-05-23T12:31:19.429Z,14.03
2023-05-23T12:33:48.593Z,8.23
2023-05-23T12:36:23.973Z,11.73
2023-05-23T12:38:50.969Z,13.27
2023-05-23T12:41:20.149Z,11.27
2023-05-23T12:43:55.232Z,16.37
2023-05-23T12:46:24.237Z,12.20
2023-05-23T12:48:51.536Z,13.63
2023-05-23T12:51:18.623Z,14.57
2023-05-23T12:53:45.644Z,16.73
2023-05-23T12:56:12.687Z,10.07
2023-05-23T12:58:39.662Z,11.17
2023-05-23T13:01:06.613Z,9.87
2023-05-23T13:03:33.662Z,11.33
2023-05-23T13:06:00.798Z,11.23
2023-05-23T13:08:27.847Z,10.77
2023-05-23T13:10:54.860Z,20.97
2023-05-23T13:13:22.488Z,14.73
2023-05-23T13:15:51.134Z,21.07
2023-05-23T13:18:18.815Z,16.93
2023-05-23T13:20:46.474Z,14.17
2023-05-23T13:23:13.611Z,19.90
2023-05-23T13:25:40.810Z,11.53
2023-05-23T13:28:07.926Z,22.53
2023-05-23T13:30:35.054Z,22.87
2023-05-23T13:33:02.408Z,15.40
2023-05-23T13:35:29.513Z,15.80
2023-05-23T13:37:56.422Z,24.03
2023-05-23T13:40:23.406Z,21.23
2023-05-23T13:42:51.608Z,30.43
2023-05-23T13:45:19.919Z,19.80
2023-05-23T13:47:47.289Z,33.20
2023-05-23T13:50:14.485Z,17.47
2023-05-23T13:52:44.927Z,23.10
2023-05-23T13:55:13.587Z,19.60
2023-05-23T13:57:40.626Z,20.93
2023-05-23T14:00:08.896Z,24.73
2023-05-23T14:02:36.052Z,23.20
2023-05-23T14:05:03.758Z,16.23
2023-05-23T14:07:31.370Z,19.90
2023-05-23T14:09:59.634Z,17.73
2023-05-23T14:12:26.630Z,16.10
2023-05-23T14:14:53.568Z,26.17
2023-05-23T14:17:20.662Z,16.43
2023-05-23T14:19:47.792Z,13.77
2023-05-23T14:22:14.776Z,16.40
2023-05-23T14:24:42.456Z,20.13
2023-05-23T14:27:11.117Z,16.07
2023-05-23T14:29:39.052Z,23.00
2023-05-23T14:32:06.540Z,16.50
2023-05-23T14:34:33.702Z,16.30
2023-05-23T14:37:01.387Z,15.37
2023-05-23T14:39:29.196Z,18.17
2023-05-23T14:41:56.622Z,18.20
2023-05-23T14:44:23.815Z,23.13
2023-05-23T14:46:50.923Z,16.50
2023-05-23T14:49:18.195Z,16.57
2023-05-23T14:51:50.402Z,22.17
2023-05-23T14:54:18.555Z,22.70
2023-05-23T14:56:45.643Z,26.93
2023-05-23T14:59:12.628Z,18.93
2023-05-23T15:01:40.673Z,26.63
2023-05-23T15:04:09.658Z,21.30
2023-05-23T15:06:38.855Z,17.27
2023-05-23T15:09:06.226Z,24.73
2023-05-23T15:11:34.987Z,19.47
2023-05-23T15:14:02.207Z,17.30
2023-05-23T15:16:32.914Z,15.17
2023-05-23T15:19:00.312Z,13.57
2023-05-23T15:21:27.631Z,13.70
2023-05-23T15:23:54.653Z,11.70
2023-05-23T15:26:22.533Z,12.33
2023-05-23T15:28:49.806Z,13.07
2023-05-23T15:31:16.860Z,8.60
2023-05-23T15:33:43.870Z,10.30
2023-05-23T15:36:13.050Z,8.07
2023-05-23T15:38:40.491Z,7.60
2023-05-23T15:41:07.473Z,7.80
2023-05-23T15:43:37.698Z,6.90
2023-05-23T15:46:05.454Z,7.30
2023-05-23T15:48:32.466Z,7.90
2023-05-23T15:50:59.411Z,7.87
2023-05-23T15:53:26.353Z,7.93
2023-05-23T15:55:53.257Z,7.63
2023-05-23T15:58:20.692Z,8.87
2023-05-23T16:00:47.657Z,7.77
2023-05-23T16:03:14.690Z,12.67
2023-05-23T16:05:41.837Z,7.47
2023-05-23T16:08:09.017Z,9.17
2023-05-23T16:10:36.026Z,8.30
2023-05-23T16:13:03.119Z,7.90
2023-05-23T16:15:30.126Z,10.00
2023-05-23T16:17:57.091Z,9.13
2023-05-23T16:20:24.143Z,8.20
2023-05-23T16:22:51.126Z,7.77
2023-05-23T16:25:18.087Z,9.70
2023-05-23T16:27:45.014Z,8.87
2023-05-23T16:30:12.170Z,8.83
2023-05-23T16:32:39.146Z,12.03
2023-05-23T16:35:06.650Z,8.50
2023-05-23T16:37:33.584Z,13.70
2023-05-23T16:40:00.690Z,12.53
2023-05-23T16:42:27.768Z,14.10
2023-05-23T16:44:54.882Z,18.27
2023-05-23T16:47:21.867Z,19.10
2023-05-23T16:49:48.843Z,15.07
2023-05-23T16:52:16.745Z,21.33
2023-05-23T16:54:43.854Z,18.30
2023-05-23T16:57:11.650Z,15.40
2023-05-23T16:59:38.619Z,18.90
2023-05-23T17:02:05.531Z,20.70
2023-05-23T17:04:32.478Z,22.00
2023-05-23T17:06:59.404Z,21.93
2023-05-23T17:09:26.461Z,17.40
2023-05-23T17:11:53.479Z,26.00
2023-05-23T17:14:20.792Z,19.33
2023-05-23T17:16:47.732Z,20.50
2023-05-23T17:19:14.702Z,21.87
2023-05-23T17:21:41.820Z,21.23
2023-05-23T17:24:08.746Z,28.30
2023-05-23T17:26:35.689Z,26.97
2023-05-23T17:29:02.630Z,25.73
2023-05-23T17:31:30.818Z,16.90
2023-05-23T17:33:58.126Z,17.87
2023-05-23T17:36:25.097Z,25.00
2023-05-23T17:38:54.667Z,25.10
2023-05-23T17:41:24.895Z,23.17
2023-05-23T17:43:51.840Z,23.33
2023-05-23T17:46:18.818Z,18.93
2023-05-23T17:48:47.984Z,25.40
2023-05-23T17:51:15.955Z,23.23
2023-05-23T17:53:43.288Z,19.40
2023-05-23T17:56:10.420Z,20.80
2023-05-23T17:58:38.541Z,29.13
2023-05-23T18:01:06.940Z,32.20
2023-05-23T18:03:34.056Z,22.20
2023-05-23T18:06:01.077Z,23.27
2023-05-23T18:08:28.055Z,25.83
2023-05-23T18:10:55.325Z,24.67
2023-05-23T18:13:22.449Z,23.03
2023-05-23T18:15:49.438Z,25.33
2023-05-23T18:18:17.921Z,25.43
2023-05-23T18:20:44.996Z,26.53
2023-05-23T18:23:12.122Z,19.10
2023-05-23T18:25:39.123Z,15.57
2023-05-23T18:28:06.055Z,25.30
2023-05-23T18:30:33.613Z,23.30
2023-05-23T18:33:01.134Z,23.03
2023-05-23T18:35:28.355Z,29.20
2023-05-23T18:37:55.409Z,26.53
2023-05-23T18:40:23.982Z,21.27
2023-05-23T18:42:51.092Z,25.10
2023-05-23T18:45:18.201Z,26.97
2023-05-23T18:47:45.225Z,34.97
2023-05-23T18:50:13.344Z,30.97
2023-05-23T18:52:40.829Z,21.33
2023-05-23T18:55:08.635Z,32.97
2023-05-23T18:57:35.640Z,19.90
2023-05-23T19:00:04.424Z,26.67
2023-05-23T19:02:31.555Z,25.57
2023-05-23T19:04:58.902Z,20.63
2023-05-23T19:07:25.845Z,24.43
2023-05-23T19:09:52.842Z,22.40
2023-05-23T19:12:19.923Z,28.60
2023-05-23T19:14:47.112Z,24.33
2023-05-23T19:17:14.049Z,22.03
2023-05-23T19:19:41.150Z,24.90
2023-05-23T19:22:08.203Z,25.70
2023-05-23T19:24:35.158Z,26.90
2023-05-23T19:27:02.469Z,22.27
2023-05-23T19:29:29.495Z,16.57
2023-05-23T19:31:58.264Z,21.43
2023-05-23T19:34:25.313Z,19.87
2023-05-23T19:36:52.280Z,23.40
2023-05-23T19:39:19.309Z,33.50
2023-05-23T19:41:46.356Z,30.00
2023-05-23T19:44:13.612Z,25.13
2023-05-23T19:46:40.551Z,27.47
2023-05-23T19:49:10.635Z,19.90
2023-05-23T19:51:37.814Z,29.03
2023-05-23T19:54:04.867Z,23.97
2023-05-23T19:56:32.451Z,29.70
2023-05-23T19:58:59.362Z,28.70
2023-05-23T20:01:27.426Z,36.03
2023-05-23T20:03:54.620Z,25.80
2023-05-23T20:06:22.143Z,20.30
2023-05-23T20:08:49.127Z,25.67
2023-05-23T20:11:16.313Z,19.33
2023-05-23T20:13:43.249Z,23.07
2023-05-23T20:16:10.359Z,22.67
2023-05-23T20:18:37.331Z,20.60
2023-05-23T20:21:05.322Z,19.50
2023-05-23T20:23:32.681Z,20.77
2023-05-23T20:26:00.395Z,29.97
2023-05-23T20:28:27.638Z,24.27
2023-05-23T20:30:54.593Z,24.47
2023-05-23T20:33:21.943Z,38.73
2023-05-23T20:35:48.957Z,29.50
2023-05-23T20:38:18.561Z,19.40
2023-05-23T20:40:46.349Z,25.60
2023-05-23T20:43:15.040Z,26.67
2023-05-23T20:45:42.272Z,24.70
2023-05-23T20:48:09.482Z,29.40
2023-05-23T20:50:36.637Z,23.93
2023-05-23T20:53:03.710Z,35.03
2023-05-23T20:55:30.632Z,26.43
2023-05-23T20:57:57.561Z,33.80
2023-05-23T21:00:24.560Z,22.97
2023-05-23T21:02:51.619Z,26.93
2023-05-23T21:05:18.660Z,32.97
2023-05-23T21:07:45.642Z,24.80
2023-05-23T21:10:12.598Z,23.13
2023-05-23T21:12:39.571Z,20.83
2023-05-23T21:15:07.415Z,25.83
2023-05-23T21:17:34.395Z,34.47
2023-05-23T21:20:01.350Z,26.70
2023-05-23T21:22:28.260Z,24.43
2023-05-23T21:24:55.265Z,24.07
2023-05-23T21:27:22.183Z,27.10
2023-05-23T21:29:49.114Z,19.00
2023-05-23T21:32:16.192Z,34.50
2023-05-23T21:34:43.209Z,24.53
2023-05-23T21:37:10.232Z,27.73
2023-05-23T21:39:50.744Z,15.63
2023-05-23T21:42:19.951Z,25.03
2023-05-23T21:44:47.022Z,30.57
2023-05-23T21:47:14.029Z,29.60
2023-05-23T21:49:40.991Z,19.93
2023-05-23T21:52:08.001Z,24.80
2023-05-23T21:54:35.019Z,30.70
2023-05-23T21:57:02.073Z,38.20
2023-05-23T21:59:29.016Z,37.83
2023-05-23T22:01:56.208Z,19.27
2023-05-23T22:04:23.157Z,20.50
2023-05-23T22:06:50.094Z,28.73
2023-05-23T22:09:17.053Z,29.53
2023-05-23T22:11:44.031Z,21.53
2023-05-23T22:14:11.252Z,30.93
2023-05-23T22:16:39.363Z,19.60
2023-05-23T22:19:07.185Z,20.20
2023-05-23T22:21:34.157Z,30.67
2023-05-23T22:24:01.392Z,24.73
2023-05-23T22:26:28.427Z,26.00
2023-05-23T22:28:55.910Z,21.70
2023-05-23T22:31:24.185Z,32.63
2023-05-23T22:33:51.425Z,33.57
2023-05-23T22:36:18.414Z,24.53
2023-05-23T22:38:45.735Z,27.40
2023-05-23T22:41:12.822Z,22.57
2023-05-23T22:43:40.096Z,20.70
2023-05-23T22:46:07.634Z,23.60
2023-05-23T22:48:34.629Z,27.83
2023-05-23T22:51:02.667Z,18.00
2023-05-23T22:53:30.235Z,27.13
2023-05-23T22:55:57.545Z,21.80
2023-05-23T22:58:24.545Z,21.67
2023-05-23T23:00:51.873Z,19.70
2023-05-23T23:03:19.086Z,24.13
2023-05-23T23:05:46.446Z,32.73
2023-05-23T23:08:13.485Z,21.20
2023-05-23T23:10:41.792Z,15.57
2023-05-23T23:13:09.218Z,25.23
2023-05-23T23:15:36.695Z,31.93
2023-05-23T23:18:05.848Z,24.07
2023-05-23T23:20:33.255Z,37.17
2023-05-23T23:23:00.402Z,21.27
2023-05-23T23:25:27.354Z,23.83
2023-05-23T23:27:54.279Z,20.30
2023-05-23T23:30:21.371Z,19.40
2023-05-23T23:32:48.385Z,38.93
2023-05-23T23:35:15.738Z,26.73
2023-05-23T23:37:42.670Z,21.53
2023-05-23T23:40:10.669Z,27.33
2023-05-23T23:42:37.618Z,21.47
2023-05-23T23:45:05.863Z,23.90
2023-05-23T23:47:33.100Z,16.57
2023-05-23T23:50:00.089Z,27.83
2023-05-23T23:52:27.964Z,21.17
2023-05-23T23:54:55.139Z,20.93
2023-05-23T23:57:22.219Z,22.57
2023-05-23T23:59:49.167Z,23.00
